sensor_id;sensor_type;location;lat;lon;timestamp;P1;durP1;ratioP1;P2;durP2;ratioP2
65009;SDS011;51556;50.002;22.014;2023-08-21T00:01:25;13.00;;;10.80;;
65009;SDS011;51556;50.002;22.014;2023-08-21T00:03:51;13.00;;;9.80;;
65009;SDS011;51556;50.002;22.014;2023-08-21T00:06:16;13.20;;;10.10;;
65009;SDS011;51556;50.002;22.014;2023-08-21T00:15:32;15.90;;;11.00;;
65009;SDS011;51556;50.002;22.014;2023-08-21T00:18:14;15.50;;;10.50;;
65009;SDS011;51556;50.002;22.014;2023-08-21T00:20:39;13.60;;;10.00;;
65009;SDS011;51556;50.002;22.014;2023-08-21T00:23:07;12.80;;;9.90;;
65009;SDS011;51556;50.002;22.014;2023-08-21T00:25:33;12.20;;;9.90;;
65009;SDS011;51556;50.002;22.014;2023-08-21T00:27:59;14.40;;;9.70;;
65009;SDS011;51556;50.002;22.014;2023-08-21T00:30:24;12.10;;;10.20;;
65009;SDS011;51556;50.002;22.014;2023-08-21T00:32:49;14.10;;;10.40;;
65009;SDS011;51556;50.002;22.014;2023-08-21T00:35:15;13.60;;;10.10;;
65009;SDS011;51556;50.002;22.014;2023-08-21T00:37:40;11.50;;;9.30;;
65009;SDS011;51556;50.002;22.014;2023-08-21T00:40:06;11.20;;;9.00;;
65009;SDS011;51556;50.002;22.014;2023-08-21T00:42:32;9.80;;;8.80;;
65009;SDS011;51556;50.002;22.014;2023-08-21T00:44:58;10.70;;;8.90;;
65009;SDS011;51556;50.002;22.014;2023-08-21T00:47:23;12.00;;;9.30;;
65009;SDS011;51556;50.002;22.014;2023-08-21T00:49:49;16.10;;;9.60;;
65009;SDS011;51556;50.002;22.014;2023-08-21T00:52:15;13.70;;;9.70;;
65009;SDS011;51556;50.002;22.014;2023-08-21T00:54:41;17.60;;;9.90;;
65009;SDS011;51556;50.002;22.014;2023-08-21T00:57:07;12.10;;;8.90;;
65009;SDS011;51556;50.002;22.014;2023-08-21T00:59:32;12.80;;;9.40;;
65009;SDS011;51556;50.002;22.014;2023-08-21T01:01:59;11.20;;;8.90;;
65009;SDS011;51556;50.002;22.014;2023-08-21T01:04:24;10.70;;;9.50;;
65009;SDS011;51556;50.002;22.014;2023-08-21T01:07:06;11.30;;;9.30;;
65009;SDS011;51556;50.002;22.014;2023-08-21T01:09:52;14.70;;;10.00;;
65009;SDS011;51556;50.002;22.014;2023-08-21T01:12:41;13.60;;;9.50;;
65009;SDS011;51556;50.002;22.014;2023-08-21T01:15:30;12.00;;;9.00;;
65009;SDS011;51556;50.002;22.014;2023-08-21T01:17:56;11.50;;;10.10;;
65009;SDS011;51556;50.002;22.014;2023-08-21T01:20:23;12.60;;;9.20;;
65009;SDS011;51556;50.002;22.014;2023-08-21T01:22:49;11.30;;;9.20;;
65009;SDS011;51556;50.002;22.014;2023-08-21T01:25:15;14.40;;;10.10;;
65009;SDS011;51556;50.002;22.014;2023-08-21T01:27:42;10.80;;;9.70;;
65009;SDS011;51556;50.002;22.014;2023-08-21T01:30:10;12.80;;;10.20;;
65009;SDS011;51556;50.002;22.014;2023-08-21T01:35:20;12.40;;;9.90;;
65009;SDS011;51556;50.002;22.014;2023-08-21T01:37:47;13.30;;;9.80;;
65009;SDS011;51556;50.002;22.014;2023-08-21T01:40:19;9.70;;;8.70;;
65009;SDS011;51556;50.002;22.014;2023-08-21T01:49:32;14.90;;;10.10;;
65009;SDS011;51556;50.002;22.014;2023-08-21T01:51:58;11.60;;;9.30;;
65009;SDS011;51556;50.002;22.014;2023-08-21T01:54:23;12.40;;;9.10;;
65009;SDS011;51556;50.002;22.014;2023-08-21T01:56:48;12.00;;;9.20;;
65009;SDS011;51556;50.002;22.014;2023-08-21T01:59:15;13.20;;;9.90;;
65009;SDS011;51556;50.002;22.014;2023-08-21T02:01:41;12.80;;;9.00;;
65009;SDS011;51556;50.002;22.014;2023-08-21T02:04:23;11.80;;;9.60;;
65009;SDS011;51556;50.002;22.014;2023-08-21T02:06:48;14.50;;;9.50;;
65009;SDS011;51556;50.002;22.014;2023-08-21T02:09:14;14.60;;;9.00;;
65009;SDS011;51556;50.002;22.014;2023-08-21T02:11:39;11.20;;;8.70;;
65009;SDS011;51556;50.002;22.014;2023-08-21T02:14:04;12.70;;;8.90;;
65009;SDS011;51556;50.002;22.014;2023-08-21T02:16:30;12.50;;;8.80;;
65009;SDS011;51556;50.002;22.014;2023-08-21T02:18:55;11.50;;;9.10;;
65009;SDS011;51556;50.002;22.014;2023-08-21T02:21:21;14.00;;;9.60;;
65009;SDS011;51556;50.002;22.014;2023-08-21T02:23:47;11.40;;;9.20;;
65009;SDS011;51556;50.002;22.014;2023-08-21T02:32:58;13.00;;;9.10;;
65009;SDS011;51556;50.002;22.014;2023-08-21T02:35:24;12.00;;;9.80;;
65009;SDS011;51556;50.002;22.014;2023-08-21T02:37:49;13.30;;;9.30;;
65009;SDS011;51556;50.002;22.014;2023-08-21T02:40:15;18.30;;;9.80;;
65009;SDS011;51556;50.002;22.014;2023-08-21T02:42:40;11.20;;;8.80;;
65009;SDS011;51556;50.002;22.014;2023-08-21T02:45:06;13.00;;;8.80;;
65009;SDS011;51556;50.002;22.014;2023-08-21T02:47:38;12.00;;;9.40;;
65009;SDS011;51556;50.002;22.014;2023-08-21T02:50:04;13.60;;;9.30;;
65009;SDS011;51556;50.002;22.014;2023-08-21T02:52:32;10.80;;;9.60;;
65009;SDS011;51556;50.002;22.014;2023-08-21T02:54:59;10.10;;;9.10;;
65009;SDS011;51556;50.002;22.014;2023-08-21T02:57:25;12.50;;;10.20;;
65009;SDS011;51556;50.002;22.014;2023-08-21T02:59:51;10.70;;;9.10;;
65009;SDS011;51556;50.002;22.014;2023-08-21T03:02:17;11.60;;;8.60;;
65009;SDS011;51556;50.002;22.014;2023-08-21T03:04:43;12.30;;;9.50;;
65009;SDS011;51556;50.002;22.014;2023-08-21T03:07:08;11.20;;;9.50;;
65009;SDS011;51556;50.002;22.014;2023-08-21T03:09:34;11.80;;;9.60;;
65009;SDS011;51556;50.002;22.014;2023-08-21T03:12:00;11.70;;;8.90;;
65009;SDS011;51556;50.002;22.014;2023-08-21T03:14:26;13.80;;;9.20;;
65009;SDS011;51556;50.002;22.014;2023-08-21T03:16:52;11.50;;;9.60;;
65009;SDS011;51556;50.002;22.014;2023-08-21T03:19:17;11.80;;;9.70;;
65009;SDS011;51556;50.002;22.014;2023-08-21T03:21:43;12.20;;;9.30;;
65009;SDS011;51556;50.002;22.014;2023-08-21T03:24:08;15.40;;;9.10;;
65009;SDS011;51556;50.002;22.014;2023-08-21T03:26:34;11.30;;;9.20;;
65009;SDS011;51556;50.002;22.014;2023-08-21T03:28:59;14.00;;;9.30;;
65009;SDS011;51556;50.002;22.014;2023-08-21T03:31:25;12.20;;;9.00;;
65009;SDS011;51556;50.002;22.014;2023-08-21T03:33:51;11.00;;;8.80;;
65009;SDS011;51556;50.002;22.014;2023-08-21T03:36:16;14.00;;;9.30;;
65009;SDS011;51556;50.002;22.014;2023-08-21T03:38:41;11.80;;;9.80;;
65009;SDS011;51556;50.002;22.014;2023-08-21T03:41:07;14.50;;;8.70;;
65009;SDS011;51556;50.002;22.014;2023-08-21T03:43:32;10.40;;;9.40;;
65009;SDS011;51556;50.002;22.014;2023-08-21T03:45:58;13.40;;;9.70;;
65009;SDS011;51556;50.002;22.014;2023-08-21T03:48:24;13.80;;;9.60;;
65009;SDS011;51556;50.002;22.014;2023-08-21T03:50:49;12.20;;;9.40;;
65009;SDS011;51556;50.002;22.014;2023-08-21T03:53:15;14.40;;;9.70;;
65009;SDS011;51556;50.002;22.014;2023-08-21T03:55:40;11.60;;;9.90;;
65009;SDS011;51556;50.002;22.014;2023-08-21T03:58:06;11.30;;;9.60;;
65009;SDS011;51556;50.002;22.014;2023-08-21T04:07:25;13.70;;;10.10;;
65009;SDS011;51556;50.002;22.014;2023-08-21T04:09:50;13.60;;;9.70;;
65009;SDS011;51556;50.002;22.014;2023-08-21T04:12:16;13.00;;;10.40;;
65009;SDS011;51556;50.002;22.014;2023-08-21T04:14:41;12.00;;;9.60;;
65009;SDS011;51556;50.002;22.014;2023-08-21T04:17:06;13.60;;;9.10;;
65009;SDS011;51556;50.002;22.014;2023-08-21T04:19:32;14.70;;;9.40;;
65009;SDS011;51556;50.002;22.014;2023-08-21T04:21:59;13.00;;;9.30;;
65009;SDS011;51556;50.002;22.014;2023-08-21T04:24:24;15.10;;;8.50;;
65009;SDS011;51556;50.002;22.014;2023-08-21T04:26:49;11.90;;;9.40;;
65009;SDS011;51556;50.002;22.014;2023-08-21T04:29:15;13.10;;;9.00;;
65009;SDS011;51556;50.002;22.014;2023-08-21T04:31:40;12.10;;;9.80;;
65009;SDS011;51556;50.002;22.014;2023-08-21T04:34:05;13.10;;;10.00;;
65009;SDS011;51556;50.002;22.014;2023-08-21T04:36:31;13.40;;;9.60;;
65009;SDS011;51556;50.002;22.014;2023-08-21T04:38:56;14.90;;;10.10;;
65009;SDS011;51556;50.002;22.014;2023-08-21T04:41:22;10.70;;;8.90;;
65009;SDS011;51556;50.002;22.014;2023-08-21T04:43:47;16.50;;;9.40;;
65009;SDS011;51556;50.002;22.014;2023-08-21T04:46:13;14.50;;;10.10;;
65009;SDS011;51556;50.002;22.014;2023-08-21T04:48:38;13.50;;;10.00;;
65009;SDS011;51556;50.002;22.014;2023-08-21T04:51:03;12.00;;;10.40;;
65009;SDS011;51556;50.002;22.014;2023-08-21T04:53:29;16.00;;;11.40;;
65009;SDS011;51556;50.002;22.014;2023-08-21T04:55:55;11.90;;;10.70;;
65009;SDS011;51556;50.002;22.014;2023-08-21T04:58:24;11.50;;;10.10;;
65009;SDS011;51556;50.002;22.014;2023-08-21T05:00:49;12.30;;;9.90;;
65009;SDS011;51556;50.002;22.014;2023-08-21T05:03:15;14.30;;;10.90;;
65009;SDS011;51556;50.002;22.014;2023-08-21T05:05:40;16.00;;;11.00;;
65009;SDS011;51556;50.002;22.014;2023-08-21T05:08:05;13.70;;;10.40;;
65009;SDS011;51556;50.002;22.014;2023-08-21T05:10:31;14.70;;;10.30;;
65009;SDS011;51556;50.002;22.014;2023-08-21T05:12:56;13.70;;;10.50;;
65009;SDS011;51556;50.002;22.014;2023-08-21T05:15:22;12.80;;;11.30;;
65009;SDS011;51556;50.002;22.014;2023-08-21T05:17:47;13.10;;;10.30;;
65009;SDS011;51556;50.002;22.014;2023-08-21T05:20:13;15.10;;;10.90;;
65009;SDS011;51556;50.002;22.014;2023-08-21T05:22:40;12.80;;;10.70;;
65009;SDS011;51556;50.002;22.014;2023-08-21T05:25:06;17.40;;;11.90;;
65009;SDS011;51556;50.002;22.014;2023-08-21T05:27:32;13.40;;;11.80;;
65009;SDS011;51556;50.002;22.014;2023-08-21T05:29:57;14.70;;;12.00;;
65009;SDS011;51556;50.002;22.014;2023-08-21T05:32:23;16.40;;;11.40;;
65009;SDS011;51556;50.002;22.014;2023-08-21T05:34:48;14.60;;;12.00;;
65009;SDS011;51556;50.002;22.014;2023-08-21T05:37:30;12.70;;;11.20;;
65009;SDS011;51556;50.002;22.014;2023-08-21T05:39:56;14.10;;;11.90;;
65009;SDS011;51556;50.002;22.014;2023-08-21T05:42:21;14.80;;;11.90;;
65009;SDS011;51556;50.002;22.014;2023-08-21T05:44:46;16.30;;;11.60;;
65009;SDS011;51556;50.002;22.014;2023-08-21T05:47:12;16.30;;;11.50;;
65009;SDS011;51556;50.002;22.014;2023-08-21T05:49:37;15.00;;;11.60;;
65009;SDS011;51556;50.002;22.014;2023-08-21T05:52:03;12.60;;;11.30;;
65009;SDS011;51556;50.002;22.014;2023-08-21T05:54:28;12.40;;;11.00;;
65009;SDS011;51556;50.002;22.014;2023-08-21T05:56:55;13.60;;;11.00;;
65009;SDS011;51556;50.002;22.014;2023-08-21T05:59:29;12.70;;;10.80;;
65009;SDS011;51556;50.002;22.014;2023-08-21T06:01:56;12.80;;;10.70;;
65009;SDS011;51556;50.002;22.014;2023-08-21T06:04:21;11.60;;;10.40;;
65009;SDS011;51556;50.002;22.014;2023-08-21T06:06:47;14.00;;;11.20;;
65009;SDS011;51556;50.002;22.014;2023-08-21T06:09:13;13.40;;;11.20;;
65009;SDS011;51556;50.002;22.014;2023-08-21T06:11:38;13.50;;;11.60;;
65009;SDS011;51556;50.002;22.014;2023-08-21T06:14:04;12.20;;;10.30;;
65009;SDS011;51556;50.002;22.014;2023-08-21T06:16:29;16.30;;;10.70;;
65009;SDS011;51556;50.002;22.014;2023-08-21T06:18:55;12.70;;;10.90;;
65009;SDS011;51556;50.002;22.014;2023-08-21T06:21:28;15.60;;;10.90;;
65009;SDS011;51556;50.002;22.014;2023-08-21T06:23:56;11.60;;;10.30;;
65009;SDS011;51556;50.002;22.014;2023-08-21T06:26:22;13.20;;;11.60;;
65009;SDS011;51556;50.002;22.014;2023-08-21T06:28:47;12.20;;;10.50;;
65009;SDS011;51556;50.002;22.014;2023-08-21T06:31:13;13.70;;;10.70;;
65009;SDS011;51556;50.002;22.014;2023-08-21T06:33:38;12.10;;;10.50;;
65009;SDS011;51556;50.002;22.014;2023-08-21T06:42:48;14.60;;;10.70;;
65009;SDS011;51556;50.002;22.014;2023-08-21T06:45:17;12.40;;;9.80;;
65009;SDS011;51556;50.002;22.014;2023-08-21T06:47:43;14.20;;;11.50;;
65009;SDS011;51556;50.002;22.014;2023-08-21T06:50:09;15.00;;;10.80;;
65009;SDS011;51556;50.002;22.014;2023-08-21T06:52:35;15.70;;;10.60;;
65009;SDS011;51556;50.002;22.014;2023-08-21T06:55:01;14.40;;;10.60;;
65009;SDS011;51556;50.002;22.014;2023-08-21T06:57:27;13.80;;;10.40;;
65009;SDS011;51556;50.002;22.014;2023-08-21T06:59:52;13.00;;;9.50;;
65009;SDS011;51556;50.002;22.014;2023-08-21T07:02:18;12.50;;;11.10;;
65009;SDS011;51556;50.002;22.014;2023-08-21T07:04:43;13.50;;;10.20;;
65009;SDS011;51556;50.002;22.014;2023-08-21T07:07:08;12.70;;;10.50;;
65009;SDS011;51556;50.002;22.014;2023-08-21T07:09:34;12.30;;;10.80;;
65009;SDS011;51556;50.002;22.014;2023-08-21T07:11:59;14.10;;;9.90;;
65009;SDS011;51556;50.002;22.014;2023-08-21T07:14:26;12.10;;;10.10;;
65009;SDS011;51556;50.002;22.014;2023-08-21T07:16:52;12.60;;;10.00;;
65009;SDS011;51556;50.002;22.014;2023-08-21T07:19:17;11.80;;;10.70;;
65009;SDS011;51556;50.002;22.014;2023-08-21T07:21:42;16.80;;;10.70;;
65009;SDS011;51556;50.002;22.014;2023-08-21T07:24:08;12.90;;;10.30;;
65009;SDS011;51556;50.002;22.014;2023-08-21T07:26:33;12.70;;;10.50;;
65009;SDS011;51556;50.002;22.014;2023-08-21T07:28:59;13.00;;;10.50;;
65009;SDS011;51556;50.002;22.014;2023-08-21T07:31:24;12.40;;;10.00;;
65009;SDS011;51556;50.002;22.014;2023-08-21T07:33:49;13.80;;;9.40;;
65009;SDS011;51556;50.002;22.014;2023-08-21T07:36:15;12.30;;;9.80;;
65009;SDS011;51556;50.002;22.014;2023-08-21T07:38:43;11.40;;;9.90;;
65009;SDS011;51556;50.002;22.014;2023-08-21T07:41:10;13.20;;;9.90;;
65009;SDS011;51556;50.002;22.014;2023-08-21T07:43:40;14.90;;;9.90;;
65009;SDS011;51556;50.002;22.014;2023-08-21T07:46:07;10.50;;;9.40;;
65009;SDS011;51556;50.002;22.014;2023-08-21T07:48:35;10.70;;;9.70;;
65009;SDS011;51556;50.002;22.014;2023-08-21T07:51:00;10.70;;;9.50;;
65009;SDS011;51556;50.002;22.014;2023-08-21T07:53:26;13.70;;;8.90;;
65009;SDS011;51556;50.002;22.014;2023-08-21T07:55:51;10.40;;;8.40;;
65009;SDS011;51556;50.002;22.014;2023-08-21T07:58:17;9.20;;;8.30;;
65009;SDS011;51556;50.002;22.014;2023-08-21T08:00:44;14.70;;;9.10;;
65009;SDS011;51556;50.002;22.014;2023-08-21T08:03:09;9.80;;;8.80;;
65009;SDS011;51556;50.002;22.014;2023-08-21T08:05:36;9.70;;;8.70;;
65009;SDS011;51556;50.002;22.014;2023-08-21T08:08:01;12.10;;;8.40;;
65009;SDS011;51556;50.002;22.014;2023-08-21T08:10:27;13.50;;;9.20;;
65009;SDS011;51556;50.002;22.014;2023-08-21T08:12:52;11.80;;;8.30;;
65009;SDS011;51556;50.002;22.014;2023-08-21T08:18:18;11.10;;;7.80;;
65009;SDS011;51556;50.002;22.014;2023-08-21T08:20:44;12.30;;;8.30;;
65009;SDS011;51556;50.002;22.014;2023-08-21T08:23:09;11.70;;;8.20;;
65009;SDS011;51556;50.002;22.014;2023-08-21T08:25:35;10.30;;;8.20;;
65009;SDS011;51556;50.002;22.014;2023-08-21T08:28:00;9.40;;;7.50;;
65009;SDS011;51556;50.002;22.014;2023-08-21T08:30:25;9.40;;;8.40;;
65009;SDS011;51556;50.002;22.014;2023-08-21T08:32:51;10.20;;;8.20;;
65009;SDS011;51556;50.002;22.014;2023-08-21T08:35:16;10.50;;;8.30;;
65009;SDS011;51556;50.002;22.014;2023-08-21T08:37:42;8.70;;;7.90;;
65009;SDS011;51556;50.002;22.014;2023-08-21T08:40:07;11.90;;;7.90;;
65009;SDS011;51556;50.002;22.014;2023-08-21T08:42:36;8.90;;;7.50;;
65009;SDS011;51556;50.002;22.014;2023-08-21T08:45:02;9.80;;;8.00;;
65009;SDS011;51556;50.002;22.014;2023-08-21T08:47:31;11.10;;;8.60;;
65009;SDS011;51556;50.002;22.014;2023-08-21T08:49:58;12.50;;;8.30;;
65009;SDS011;51556;50.002;22.014;2023-08-21T08:52:26;10.80;;;7.90;;
65009;SDS011;51556;50.002;22.014;2023-08-21T08:54:53;9.50;;;8.40;;
65009;SDS011;51556;50.002;22.014;2023-08-21T08:57:22;11.10;;;8.30;;
65009;SDS011;51556;50.002;22.014;2023-08-21T09:00:04;13.40;;;7.80;;
65009;SDS011;51556;50.002;22.014;2023-08-21T09:02:30;8.20;;;7.40;;
65009;SDS011;51556;50.002;22.014;2023-08-21T09:04:56;9.20;;;8.10;;
65009;SDS011;51556;50.002;22.014;2023-08-21T09:07:21;8.50;;;7.70;;
65009;SDS011;51556;50.002;22.014;2023-08-21T09:09:47;9.00;;;7.80;;
65009;SDS011;51556;50.002;22.014;2023-08-21T09:12:15;9.30;;;6.80;;
65009;SDS011;51556;50.002;22.014;2023-08-21T09:14:42;8.40;;;7.00;;
65009;SDS011;51556;50.002;22.014;2023-08-21T09:17:09;9.80;;;6.70;;
65009;SDS011;51556;50.002;22.014;2023-08-21T09:19:35;7.90;;;7.20;;
65009;SDS011;51556;50.002;22.014;2023-08-21T09:22:17;9.30;;;7.30;;
65009;SDS011;51556;50.002;22.014;2023-08-21T09:25:26;9.70;;;6.90;;
65009;SDS011;51556;50.002;22.014;2023-08-21T09:27:36;6.80;;;6.10;;
65009;SDS011;51556;50.002;22.014;2023-08-21T09:30:04;7.20;;;6.40;;
65009;SDS011;51556;50.002;22.014;2023-08-21T09:32:30;8.00;;;6.30;;
65009;SDS011;51556;50.002;22.014;2023-08-21T09:34:56;6.70;;;6.00;;
65009;SDS011;51556;50.002;22.014;2023-08-21T09:37:23;8.20;;;6.50;;
65009;SDS011;51556;50.002;22.014;2023-08-21T09:39:54;8.80;;;6.50;;
65009;SDS011;51556;50.002;22.014;2023-08-21T09:42:19;6.90;;;6.30;;
65009;SDS011;51556;50.002;22.014;2023-08-21T09:44:46;8.70;;;6.70;;
65009;SDS011;51556;50.002;22.014;2023-08-21T09:47:16;7.50;;;6.50;;
65009;SDS011;51556;50.002;22.014;2023-08-21T09:49:42;7.20;;;6.00;;
65009;SDS011;51556;50.002;22.014;2023-08-21T09:52:08;12.20;;;5.90;;
65009;SDS011;51556;50.002;22.014;2023-08-21T09:54:38;7.00;;;5.90;;
65009;SDS011;51556;50.002;22.014;2023-08-21T09:57:05;6.30;;;5.70;;
65009;SDS011;51556;50.002;22.014;2023-08-21T09:59:31;7.00;;;6.10;;
65009;SDS011;51556;50.002;22.014;2023-08-21T10:01:58;7.30;;;5.90;;
65009;SDS011;51556;50.002;22.014;2023-08-21T10:04:25;9.90;;;6.40;;
65009;SDS011;51556;50.002;22.014;2023-08-21T10:06:51;9.00;;;6.80;;
65009;SDS011;51556;50.002;22.014;2023-08-21T10:09:19;8.10;;;6.60;;
65009;SDS011;51556;50.002;22.014;2023-08-21T10:11:46;8.20;;;6.10;;
65009;SDS011;51556;50.002;22.014;2023-08-21T10:14:13;9.10;;;7.30;;
65009;SDS011;51556;50.002;22.014;2023-08-21T10:16:39;11.10;;;6.60;;
65009;SDS011;51556;50.002;22.014;2023-08-21T10:19:06;8.40;;;7.10;;
65009;SDS011;51556;50.002;22.014;2023-08-21T10:21:35;7.90;;;6.70;;
65009;SDS011;51556;50.002;22.014;2023-08-21T10:24:04;8.70;;;7.00;;
65009;SDS011;51556;50.002;22.014;2023-08-21T10:26:30;7.90;;;7.10;;
65009;SDS011;51556;50.002;22.014;2023-08-21T10:28:58;8.00;;;6.50;;
65009;SDS011;51556;50.002;22.014;2023-08-21T10:34:06;8.20;;;6.90;;
65009;SDS011;51556;50.002;22.014;2023-08-21T10:37:16;8.50;;;7.30;;
65009;SDS011;51556;50.002;22.014;2023-08-21T10:39:25;8.30;;;6.90;;
65009;SDS011;51556;50.002;22.014;2023-08-21T10:47:21;9.50;;;7.40;;
65009;SDS011;51556;50.002;22.014;2023-08-21T10:49:50;9.30;;;6.90;;
65009;SDS011;51556;50.002;22.014;2023-08-21T10:52:20;8.30;;;7.30;;
65009;SDS011;51556;50.002;22.014;2023-08-21T10:54:59;10.40;;;7.20;;
65009;SDS011;51556;50.002;22.014;2023-08-21T10:57:29;10.30;;;7.60;;
65009;SDS011;51556;50.002;22.014;2023-08-21T11:00:05;7.80;;;6.90;;
65009;SDS011;51556;50.002;22.014;2023-08-21T11:02:36;11.10;;;7.70;;
65009;SDS011;51556;50.002;22.014;2023-08-21T11:05:03;9.90;;;6.80;;
65009;SDS011;51556;50.002;22.014;2023-08-21T11:07:30;7.90;;;7.20;;
65009;SDS011;51556;50.002;22.014;2023-08-21T11:10:01;7.90;;;7.00;;
65009;SDS011;51556;50.002;22.014;2023-08-21T11:12:28;7.90;;;7.10;;
65009;SDS011;51556;50.002;22.014;2023-08-21T11:14:53;8.00;;;6.80;;
65009;SDS011;51556;50.002;22.014;2023-08-21T11:17:19;8.80;;;7.00;;
65009;SDS011;51556;50.002;22.014;2023-08-21T11:19:44;9.80;;;6.40;;
65009;SDS011;51556;50.002;22.014;2023-08-21T11:22:11;8.20;;;7.10;;
65009;SDS011;51556;50.002;22.014;2023-08-21T11:27:03;10.30;;;7.00;;
65009;SDS011;51556;50.002;22.014;2023-08-21T11:29:37;9.90;;;7.60;;
65009;SDS011;51556;50.002;22.014;2023-08-21T11:32:07;8.80;;;7.50;;
65009;SDS011;51556;50.002;22.014;2023-08-21T11:34:37;8.90;;;7.80;;
65009;SDS011;51556;50.002;22.014;2023-08-21T11:37:04;16.50;;;8.60;;
65009;SDS011;51556;50.002;22.014;2023-08-21T11:39:43;9.70;;;8.00;;
65009;SDS011;51556;50.002;22.014;2023-08-21T11:42:11;11.30;;;8.90;;
65009;SDS011;51556;50.002;22.014;2023-08-21T11:44:41;12.10;;;8.20;;
65009;SDS011;51556;50.002;22.014;2023-08-21T11:47:17;10.60;;;8.30;;
65009;SDS011;51556;50.002;22.014;2023-08-21T11:56:27;13.60;;;7.60;;
65009;SDS011;51556;50.002;22.014;2023-08-21T11:58:54;11.30;;;8.70;;
65009;SDS011;51556;50.002;22.014;2023-08-21T12:01:20;12.80;;;8.90;;
65009;SDS011;51556;50.002;22.014;2023-08-21T12:10:34;14.40;;;9.60;;
65009;SDS011;51556;50.002;22.014;2023-08-21T12:13:00;15.80;;;9.60;;
65009;SDS011;51556;50.002;22.014;2023-08-21T12:15:25;11.60;;;9.40;;
65009;SDS011;51556;50.002;22.014;2023-08-21T12:17:50;11.20;;;10.00;;
65009;SDS011;51556;50.002;22.014;2023-08-21T12:20:16;18.50;;;9.90;;
65009;SDS011;51556;50.002;22.014;2023-08-21T12:22:41;33.40;;;10.70;;
65009;SDS011;51556;50.002;22.014;2023-08-21T12:25:09;23.00;;;10.30;;
65009;SDS011;51556;50.002;22.014;2023-08-21T12:27:35;13.80;;;9.90;;
65009;SDS011;51556;50.002;22.014;2023-08-21T12:30:01;10.80;;;9.30;;
65009;SDS011;51556;50.002;22.014;2023-08-21T12:32:27;10.90;;;9.80;;
65009;SDS011;51556;50.002;22.014;2023-08-21T12:34:52;11.60;;;9.70;;
65009;SDS011;51556;50.002;22.014;2023-08-21T12:37:18;13.50;;;10.50;;
65009;SDS011;51556;50.002;22.014;2023-08-21T12:46:32;18.30;;;10.40;;
65009;SDS011;51556;50.002;22.014;2023-08-21T12:48:57;15.70;;;10.50;;
65009;SDS011;51556;50.002;22.014;2023-08-21T12:51:24;21.40;;;10.50;;
65009;SDS011;51556;50.002;22.014;2023-08-21T12:53:49;12.10;;;10.40;;
65009;SDS011;51556;50.002;22.014;2023-08-21T12:56:16;11.70;;;9.80;;
65009;SDS011;51556;50.002;22.014;2023-08-21T12:58:41;11.60;;;10.40;;
65009;SDS011;51556;50.002;22.014;2023-08-21T13:01:07;14.00;;;10.60;;
65009;SDS011;51556;50.002;22.014;2023-08-21T13:03:33;12.10;;;10.70;;
65009;SDS011;51556;50.002;22.014;2023-08-21T13:05:58;16.30;;;10.30;;
65009;SDS011;51556;50.002;22.014;2023-08-21T13:08:24;12.10;;;10.50;;
65009;SDS011;51556;50.002;22.014;2023-08-21T13:10:50;11.50;;;9.70;;
65009;SDS011;51556;50.002;22.014;2023-08-21T13:13:15;12.00;;;10.60;;
65009;SDS011;51556;50.002;22.014;2023-08-21T13:15:40;12.80;;;11.30;;
65009;SDS011;51556;50.002;22.014;2023-08-21T13:18:09;15.20;;;11.20;;
65009;SDS011;51556;50.002;22.014;2023-08-21T13:20:35;13.10;;;10.50;;
65009;SDS011;51556;50.002;22.014;2023-08-21T13:23:00;15.70;;;11.20;;
65009;SDS011;51556;50.002;22.014;2023-08-21T13:25:25;12.00;;;9.50;;
65009;SDS011;51556;50.002;22.014;2023-08-21T13:27:52;10.90;;;9.50;;
65009;SDS011;51556;50.002;22.014;2023-08-21T13:30:18;11.90;;;9.10;;
65009;SDS011;51556;50.002;22.014;2023-08-21T13:32:45;9.20;;;8.30;;
65009;SDS011;51556;50.002;22.014;2023-08-21T13:35:11;10.70;;;8.10;;
65009;SDS011;51556;50.002;22.014;2023-08-21T13:37:39;13.10;;;8.40;;
65009;SDS011;51556;50.002;22.014;2023-08-21T13:43:27;11.10;;;8.30;;
65009;SDS011;51556;50.002;22.014;2023-08-21T13:45:52;10.60;;;8.70;;
65009;SDS011;51556;50.002;22.014;2023-08-21T13:48:18;9.20;;;7.50;;
65009;SDS011;51556;50.002;22.014;2023-08-21T13:50:43;8.50;;;7.60;;
65009;SDS011;51556;50.002;22.014;2023-08-21T13:53:08;10.90;;;7.40;;
65009;SDS011;51556;50.002;22.014;2023-08-21T13:55:34;10.30;;;7.40;;
65009;SDS011;51556;50.002;22.014;2023-08-21T13:57:59;10.50;;;7.80;;
65009;SDS011;51556;50.002;22.014;2023-08-21T14:00:25;8.60;;;7.50;;
65009;SDS011;51556;50.002;22.014;2023-08-21T14:02:50;9.00;;;8.00;;
65009;SDS011;51556;50.002;22.014;2023-08-21T14:05:16;12.00;;;8.40;;
65009;SDS011;51556;50.002;22.014;2023-08-21T14:07:42;13.80;;;8.50;;
65009;SDS011;51556;50.002;22.014;2023-08-21T14:10:08;10.80;;;7.60;;
65009;SDS011;51556;50.002;22.014;2023-08-21T14:12:34;9.20;;;7.60;;
65009;SDS011;51556;50.002;22.014;2023-08-21T14:15:00;11.70;;;8.40;;
65009;SDS011;51556;50.002;22.014;2023-08-21T14:17:25;8.50;;;7.60;;
65009;SDS011;51556;50.002;22.014;2023-08-21T14:19:51;9.50;;;7.80;;
65009;SDS011;51556;50.002;22.014;2023-08-21T14:22:16;10.20;;;8.00;;
65009;SDS011;51556;50.002;22.014;2023-08-21T14:24:41;10.30;;;7.60;;
65009;SDS011;51556;50.002;22.014;2023-08-21T14:27:07;10.10;;;6.80;;
65009;SDS011;51556;50.002;22.014;2023-08-21T14:29:32;6.20;;;5.50;;
65009;SDS011;51556;50.002;22.014;2023-08-21T14:31:58;13.00;;;5.60;;
65009;SDS011;51556;50.002;22.014;2023-08-21T14:34:25;7.10;;;5.40;;
65009;SDS011;51556;50.002;22.014;2023-08-21T14:36:51;6.50;;;4.90;;
65009;SDS011;51556;50.002;22.014;2023-08-21T14:39:17;6.40;;;4.80;;
65009;SDS011;51556;50.002;22.014;2023-08-21T14:41:42;8.60;;;5.30;;
65009;SDS011;51556;50.002;22.014;2023-08-21T14:44:08;8.60;;;4.80;;
65009;SDS011;51556;50.002;22.014;2023-08-21T14:46:34;5.70;;;5.10;;
65009;SDS011;51556;50.002;22.014;2023-08-21T14:48:59;10.30;;;4.50;;
65009;SDS011;51556;50.002;22.014;2023-08-21T14:51:25;6.90;;;4.30;;
65009;SDS011;51556;50.002;22.014;2023-08-21T14:53:51;5.80;;;4.60;;
65009;SDS011;51556;50.002;22.014;2023-08-21T14:56:16;6.40;;;4.60;;
65009;SDS011;51556;50.002;22.014;2023-08-21T14:58:42;5.80;;;4.30;;
65009;SDS011;51556;50.002;22.014;2023-08-21T15:01:08;6.50;;;4.80;;
65009;SDS011;51556;50.002;22.014;2023-08-21T15:03:35;9.50;;;5.10;;
65009;SDS011;51556;50.002;22.014;2023-08-21T15:06:01;7.00;;;4.90;;
65009;SDS011;51556;50.002;22.014;2023-08-21T15:08:27;8.50;;;4.90;;
65009;SDS011;51556;50.002;22.014;2023-08-21T15:10:53;7.10;;;4.50;;
65009;SDS011;51556;50.002;22.014;2023-08-21T15:13:19;5.30;;;4.60;;
65009;SDS011;51556;50.002;22.014;2023-08-21T15:15:44;7.30;;;4.60;;
65009;SDS011;51556;50.002;22.014;2023-08-21T15:18:10;6.40;;;4.50;;
65009;SDS011;51556;50.002;22.014;2023-08-21T15:20:35;5.00;;;4.20;;
65009;SDS011;51556;50.002;22.014;2023-08-21T15:23:00;8.00;;;4.20;;
65009;SDS011;51556;50.002;22.014;2023-08-21T15:25:26;6.90;;;4.60;;
65009;SDS011;51556;50.002;22.014;2023-08-21T15:27:51;8.70;;;5.70;;
65009;SDS011;51556;50.002;22.014;2023-08-21T15:30:17;8.80;;;5.50;;
65009;SDS011;51556;50.002;22.014;2023-08-21T15:32:43;6.20;;;4.50;;